createdAt,value
2023-05-19T00:01:22.665Z,72.64
2023-05-19T00:03:54.333Z,72.53
2023-05-19T00:06:25.606Z,72.62
2023-05-19T00:08:59.384Z,72.78
2023-05-19T00:11:29.292Z,72.94
2023-05-19T00:13:57.324Z,73.04
2023-05-19T00:16:24.981Z,73.13
2023-05-19T00:18:53.400Z,73.10
2023-05-19T00:21:20.708Z,73.19
2023-05-19T00:23:47.612Z,73.23
2023-05-19T00:26:14.733Z,73.36
2023-05-19T00:28:43.264Z,73.54
2023-05-19T00:31:10.423Z,73.52
2023-05-19T00:33:37.376Z,73.55
2023-05-19T00:36:04.568Z,73.45
2023-05-19T00:38:31.727Z,73.43
2023-05-19T00:40:59.264Z,73.36
2023-05-19T00:43:26.420Z,73.41
2023-05-19T00:45:53.518Z,73.51
2023-05-19T00:48:21.077Z,73.55
2023-05-19T00:50:48.682Z,73.45
2023-05-19T00:53:15.659Z,73.53
2023-05-19T00:55:42.855Z,73.58
2023-05-19T00:58:10.994Z,73.63
2023-05-19T01:00:39.741Z,73.65
2023-05-19T01:03:20.827Z,73.51
2023-05-19T01:05:48.037Z,73.37
2023-05-19T01:08:14.985Z,73.35
2023-05-19T01:10:42.035Z,73.38
2023-05-19T01:13:09.628Z,73.47
2023-05-19T01:15:41.519Z,73.60
2023-05-19T01:18:12.243Z,73.66
2023-05-19T01:20:41.341Z,73.77
2023-05-19T01:23:15.314Z,73.79
2023-05-19T01:25:50.070Z,73.81
2023-05-19T01:28:49.179Z,73.77
2023-05-19T01:31:16.174Z,73.89
2023-05-19T01:33:43.702Z,73.80
2023-05-19T01:36:10.640Z,73.70
2023-05-19T01:38:38.192Z,73.54
2023-05-19T01:41:05.147Z,73.44
2023-05-19T01:43:32.003Z,73.30
2023-05-19T01:45:59.725Z,73.39
2023-05-19T01:48:26.742Z,73.24
2023-05-19T01:50:53.595Z,72.88
2023-05-19T01:53:20.457Z,72.75
2023-05-19T01:55:49.767Z,72.75
2023-05-19T01:58:41.861Z,72.88
2023-05-19T02:01:42.082Z,72.89
2023-05-19T02:04:18.706Z,72.67
2023-05-19T02:07:04.062Z,72.45
2023-05-19T02:10:04.590Z,72.37
2023-05-19T02:12:37.724Z,72.52
2023-05-19T02:15:17.729Z,72.49
2023-05-19T02:17:48.665Z,72.43
2023-05-19T02:20:16.073Z,72.47
2023-05-19T02:22:42.999Z,72.29
2023-05-19T02:25:10.491Z,72.27
2023-05-19T02:27:38.075Z,72.41
2023-05-19T02:30:05.790Z,72.54
2023-05-19T02:32:33.024Z,72.47
2023-05-19T02:35:00.210Z,72.32
2023-05-19T02:37:31.257Z,72.14
2023-05-19T02:39:58.326Z,72.18
2023-05-19T02:42:25.231Z,72.29
2023-05-19T02:44:54.705Z,72.52
2023-05-19T02:47:21.698Z,72.60
2023-05-19T02:49:48.730Z,72.64
2023-05-19T02:55:03.529Z,72.57
2023-05-19T02:57:32.008Z,72.64
2023-05-19T03:00:03.017Z,72.82
2023-05-19T03:02:34.417Z,72.98
2023-05-19T03:05:03.640Z,73.10
2023-05-19T03:07:30.826Z,73.20
2023-05-19T03:09:57.989Z,73.24
2023-05-19T03:12:24.869Z,73.41
2023-05-19T03:14:51.942Z,73.56
2023-05-19T03:17:19.013Z,73.57
2023-05-19T03:19:45.925Z,73.78
2023-05-19T03:22:12.950Z,73.87
2023-05-19T03:24:40.181Z,73.77
2023-05-19T03:27:07.735Z,73.85
2023-05-19T03:29:34.769Z,74.03
2023-05-19T03:32:02.780Z,74.15
2023-05-19T03:34:30.219Z,74.40
2023-05-19T03:36:57.820Z,74.40
2023-05-19T03:39:24.956Z,74.37
2023-05-19T03:41:52.124Z,74.35
2023-05-19T03:44:20.452Z,74.40
2023-05-19T03:46:47.461Z,74.49
2023-05-19T03:49:32.675Z,74.61
2023-05-19T03:52:38.798Z,74.26
2023-05-19T03:55:21.634Z,74.46
2023-05-19T03:57:49.083Z,74.32
2023-05-19T04:00:16.800Z,74.36
2023-05-19T04:02:43.859Z,74.40
2023-05-19T04:05:11.001Z,74.50
2023-05-19T04:07:38.030Z,74.53
2023-05-19T04:10:05.115Z,74.49
2023-05-19T04:12:33.184Z,74.57
2023-05-19T04:15:00.205Z,74.65
2023-05-19T04:17:27.127Z,74.80
2023-05-19T04:19:54.718Z,74.86
2023-05-19T04:22:22.735Z,74.62
2023-05-19T04:24:51.698Z,74.59
2023-05-19T04:27:18.989Z,74.55
2023-05-19T04:29:48.510Z,74.61
2023-05-19T04:32:18.085Z,74.81
2023-05-19T04:34:46.369Z,74.91
2023-05-19T04:37:20.539Z,74.78
2023-05-19T04:39:48.514Z,74.82
2023-05-19T04:42:19.476Z,74.92
2023-05-19T04:44:49.466Z,74.95
2023-05-19T04:47:18.183Z,75.11
2023-05-19T04:49:46.089Z,75.10
2023-05-19T04:52:13.025Z,74.84
2023-05-19T04:54:41.947Z,74.87
2023-05-19T04:57:10.652Z,74.73
2023-05-19T04:59:38.316Z,74.73
2023-05-19T05:02:07.036Z,74.83
2023-05-19T05:04:37.573Z,74.93
2023-05-19T05:07:04.640Z,74.87
2023-05-19T05:09:33.239Z,74.86
2023-05-19T05:12:01.805Z,74.89
2023-05-19T05:14:28.955Z,75.10
2023-05-19T05:16:57.097Z,75.23
2023-05-19T05:19:24.866Z,75.23
2023-05-19T05:21:52.477Z,75.20
2023-05-19T05:24:19.780Z,75.17
2023-05-19T05:26:50.823Z,75.13
2023-05-19T05:29:17.918Z,75.20
2023-05-19T05:31:44.895Z,75.40
2023-05-19T05:34:11.818Z,75.46
2023-05-19T05:36:38.772Z,75.53
2023-05-19T05:39:05.774Z,75.47
2023-05-19T05:41:35.629Z,75.37
2023-05-19T05:44:07.645Z,75.34
2023-05-19T05:46:35.706Z,75.43
2023-05-19T05:49:03.532Z,75.33
2023-05-19T05:51:33.050Z,75.11
2023-05-19T05:54:00.261Z,74.95
2023-05-19T05:56:37.466Z,75.12
2023-05-19T05:59:10.464Z,75.24
2023-05-19T06:01:37.457Z,75.22
2023-05-19T06:04:06.102Z,75.16
2023-05-19T06:06:33.265Z,74.95
2023-05-19T06:09:01.636Z,74.59
2023-05-19T06:11:29.108Z,74.16
2023-05-19T06:13:57.583Z,74.15
2023-05-19T06:16:51.298Z,74.16
2023-05-19T06:19:20.332Z,74.51
2023-05-19T06:21:47.985Z,74.74
2023-05-19T06:24:16.115Z,74.68
2023-05-19T06:26:43.267Z,74.58
2023-05-19T06:29:13.722Z,74.62
2023-05-19T06:31:40.758Z,74.79
2023-05-19T06:34:12.593Z,74.80
2023-05-19T06:36:41.688Z,74.74
2023-05-19T06:39:09.085Z,74.38
2023-05-19T06:41:38.555Z,74.31
2023-05-19T06:44:07.167Z,74.49
2023-05-19T06:46:34.221Z,74.47
2023-05-19T06:49:01.832Z,74.56
2023-05-19T06:51:33.838Z,74.32
2023-05-19T06:54:01.371Z,74.07
2023-05-19T06:56:28.535Z,74.00
2023-05-19T06:58:56.393Z,73.86
2023-05-19T07:01:28.167Z,73.72
2023-05-19T07:03:55.931Z,73.88
2023-05-19T07:06:23.097Z,73.94
2023-05-19T07:08:50.681Z,73.68
2023-05-19T07:11:18.424Z,73.40
2023-05-19T07:13:45.488Z,73.38
2023-05-19T07:16:13.150Z,73.50
2023-05-19T07:18:40.140Z,73.49
2023-05-19T07:21:07.757Z,73.37
2023-05-19T07:23:34.835Z,73.30
2023-05-19T07:26:01.812Z,73.30
2023-05-19T07:28:28.873Z,73.30
2023-05-19T07:30:56.426Z,73.42
2023-05-19T07:33:23.588Z,73.77
2023-05-19T07:35:50.544Z,73.75
2023-05-19T07:38:18.855Z,73.70
2023-05-19T07:40:45.805Z,73.49
2023-05-19T07:43:12.733Z,73.68
2023-05-19T07:45:39.735Z,73.83
2023-05-19T07:48:11.599Z,74.03
2023-05-19T07:50:38.622Z,73.96
2023-05-19T07:53:05.632Z,73.93
2023-05-19T07:55:32.548Z,74.00
2023-05-19T07:57:59.553Z,73.96
2023-05-19T08:00:26.788Z,74.15
2023-05-19T08:02:53.803Z,73.95
2023-05-19T08:05:20.965Z,73.58
2023-05-19T08:07:52.985Z,73.57
2023-05-19T08:10:19.872Z,73.34
2023-05-19T08:12:47.226Z,73.50
2023-05-19T08:15:14.151Z,73.66
2023-05-19T08:17:41.144Z,73.62
2023-05-19T08:20:10.340Z,73.56
2023-05-19T08:22:37.306Z,73.58
2023-05-19T08:25:05.498Z,73.54
2023-05-19T08:27:32.809Z,73.59
2023-05-19T08:29:59.802Z,73.43
2023-05-19T08:32:26.968Z,73.48
2023-05-19T08:34:54.064Z,73.33
2023-05-19T08:37:21.318Z,73.33
2023-05-19T08:39:48.406Z,73.06
2023-05-19T08:42:15.352Z,73.02
2023-05-19T08:44:44.165Z,73.29
2023-05-19T08:47:14.165Z,73.11
2023-05-19T08:49:45.720Z,73.23
2023-05-19T08:52:18.108Z,73.59
2023-05-19T08:55:01.232Z,73.38
2023-05-19T08:57:28.396Z,73.33
2023-05-19T08:59:55.639Z,73.30
2023-05-19T09:02:22.790Z,73.27
2023-05-19T09:04:49.968Z,73.20
2023-05-19T09:07:17.301Z,72.85
2023-05-19T09:09:44.404Z,72.95
2023-05-19T09:12:13.724Z,72.95
2023-05-19T09:14:40.755Z,72.97
2023-05-19T09:17:08.265Z,72.77
2023-05-19T09:19:35.752Z,72.82
2023-05-19T09:22:06.658Z,72.37
2023-05-19T09:24:34.259Z,72.13
2023-05-19T09:27:02.360Z,72.28
2023-05-19T09:29:29.308Z,72.32
2023-05-19T09:32:01.169Z,71.95
2023-05-19T09:34:28.329Z,71.89
2023-05-19T09:36:55.337Z,72.10
2023-05-19T09:39:23.262Z,72.27
2023-05-19T09:41:54.320Z,72.33
2023-05-19T09:44:21.443Z,72.48
2023-05-19T09:46:52.937Z,72.44
2023-05-19T09:49:24.129Z,72.40
2023-05-19T09:51:51.782Z,71.69
2023-05-19T09:54:20.655Z,71.83
2023-05-19T09:56:58.708Z,72.01
2023-05-19T09:59:26.430Z,72.30
2023-05-19T10:01:57.860Z,71.94
2023-05-19T10:04:27.187Z,71.51
2023-05-19T10:06:55.115Z,72.02
2023-05-19T10:09:26.399Z,72.04
2023-05-19T10:11:54.392Z,72.22
2023-05-19T10:14:25.842Z,71.97
2023-05-19T10:16:53.759Z,72.07
2023-05-19T10:19:22.160Z,72.22
2023-05-19T10:21:49.829Z,72.77
2023-05-19T10:24:16.887Z,73.08
2023-05-19T10:26:53.724Z,72.91
2023-05-19T10:29:27.401Z,72.86
2023-05-19T10:31:55.637Z,72.56
2023-05-19T10:34:32.680Z,72.28
2023-05-19T10:37:18.196Z,72.30
2023-05-19T10:39:45.667Z,72.37
2023-05-19T10:42:15.984Z,72.13
2023-05-19T10:44:49.851Z,72.12
2023-05-19T10:47:25.561Z,71.99
2023-05-19T10:49:56.081Z,72.24
2023-05-19T10:52:26.319Z,72.24
2023-05-19T10:54:54.884Z,71.44
2023-05-19T10:57:28.669Z,71.28
2023-05-19T11:00:01.100Z,71.03
2023-05-19T11:02:44.370Z,70.51
2023-05-19T11:05:16.918Z,70.78
2023-05-19T11:07:44.797Z,70.91
2023-05-19T11:10:12.130Z,70.40
2023-05-19T11:12:44.062Z,70.44
2023-05-19T11:15:15.246Z,70.19
2023-05-19T11:17:43.000Z,70.44
2023-05-19T11:20:13.347Z,70.37
2023-05-19T11:22:40.260Z,69.81
2023-05-19T11:25:09.310Z,69.45
2023-05-19T11:27:37.635Z,69.37
2023-05-19T11:30:09.010Z,69.35
2023-05-19T11:32:39.377Z,69.08
2023-05-19T11:35:06.693Z,69.31
2023-05-19T11:37:34.849Z,68.66
2023-05-19T11:40:02.596Z,68.28
2023-05-19T11:42:29.570Z,68.37
2023-05-19T11:44:56.591Z,69.15
2023-05-19T11:47:23.643Z,69.65
2023-05-19T11:49:52.222Z,69.34
2023-05-19T11:52:22.080Z,69.20
2023-05-19T11:54:49.232Z,68.93
2023-05-19T11:57:16.326Z,67.83
2023-05-19T11:59:48.219Z,68.76
2023-05-19T12:02:20.467Z,69.19
2023-05-19T12:04:56.702Z,69.66
2023-05-19T12:07:23.845Z,69.14
2023-05-19T12:09:51.894Z,68.76
2023-05-19T12:12:20.787Z,68.48
2023-05-19T12:14:49.073Z,68.39
2023-05-19T12:17:17.726Z,67.29
2023-05-19T12:19:44.739Z,66.87
2023-05-19T12:22:11.685Z,67.94
2023-05-19T12:24:38.762Z,67.00
2023-05-19T12:27:09.987Z,67.19
2023-05-19T12:29:38.563Z,66.86
2023-05-19T12:32:09.723Z,67.05
2023-05-19T12:34:42.765Z,67.80
2023-05-19T12:37:12.205Z,68.31
2023-05-19T12:39:39.963Z,67.84
2023-05-19T12:42:10.944Z,67.77
2023-05-19T12:44:46.927Z,67.18
2023-05-19T12:47:15.365Z,66.66
2023-05-19T12:50:04.819Z,66.22
2023-05-19T12:52:53.451Z,66.61
2023-05-19T12:55:21.144Z,66.29
2023-05-19T12:57:54.832Z,66.60
2023-05-19T13:00:23.061Z,66.42
2023-05-19T13:03:06.655Z,66.19
2023-05-19T13:05:38.259Z,66.00
2023-05-19T13:08:14.934Z,65.76
2023-05-19T13:10:43.089Z,65.57
2023-05-19T13:13:10.224Z,64.70
2023-05-19T13:15:38.727Z,64.20
2023-05-19T13:18:07.406Z,64.57
2023-05-19T13:20:35.363Z,64.60
2023-05-19T13:23:02.916Z,64.69
2023-05-19T13:25:29.836Z,64.22
2023-05-19T13:27:59.504Z,64.31
2023-05-19T13:30:27.505Z,65.03
2023-05-19T13:32:54.553Z,64.95
2023-05-19T13:35:24.103Z,64.93
2023-05-19T13:37:51.371Z,65.01
2023-05-19T13:40:19.406Z,64.98
2023-05-19T13:42:46.531Z,65.36
2023-05-19T13:45:14.386Z,65.18
2023-05-19T13:47:45.089Z,64.57
2023-05-19T13:50:31.053Z,64.19
2023-05-19T13:52:58.630Z,64.96
2023-05-19T13:55:27.600Z,64.83
2023-05-19T13:57:55.066Z,64.67
2023-05-19T14:00:22.344Z,64.23
2023-05-19T14:02:49.854Z,64.04
2023-05-19T14:05:17.256Z,63.16
2023-05-19T14:07:45.361Z,63.36
2023-05-19T14:10:12.257Z,63.49
2023-05-19T14:12:51.717Z,63.17
2023-05-19T14:15:27.314Z,63.23
2023-05-19T14:17:56.828Z,62.80
2023-05-19T14:20:28.656Z,62.86
2023-05-19T14:22:57.061Z,63.35
2023-05-19T14:25:24.122Z,63.27
2023-05-19T14:27:53.176Z,63.84
2023-05-19T14:30:20.458Z,63.96
2023-05-19T14:32:47.482Z,63.24
2023-05-19T14:35:14.639Z,63.28
2023-05-19T14:37:41.641Z,63.43
2023-05-19T14:40:09.105Z,63.31
2023-05-19T14:42:37.810Z,63.35
2023-05-19T14:45:05.960Z,63.41
2023-05-19T14:47:33.030Z,63.33
2023-05-19T14:50:00.039Z,63.66
2023-05-19T14:52:27.452Z,63.77
2023-05-19T14:54:56.212Z,63.43
2023-05-19T14:57:41.951Z,63.13
2023-05-19T15:00:11.179Z,63.34
2023-05-19T15:02:38.605Z,63.39
2023-05-19T15:05:06.972Z,63.51
2023-05-19T15:07:34.246Z,63.59
2023-05-19T15:12:32.144Z,63.56
2023-05-19T15:15:00.494Z,63.77
2023-05-19T15:17:28.024Z,63.47
2023-05-19T15:19:55.483Z,63.14
2023-05-19T15:22:22.476Z,62.90
2023-05-19T15:24:49.662Z,63.09
2023-05-19T15:27:17.263Z,63.25
2023-05-19T15:29:47.775Z,63.06
2023-05-19T15:32:14.890Z,62.85
2023-05-19T15:34:41.938Z,63.04
2023-05-19T15:37:10.616Z,63.30
2023-05-19T15:39:37.762Z,63.51
2023-05-19T15:42:04.852Z,63.25
2023-05-19T15:44:31.903Z,62.89
2023-05-19T15:47:01.693Z,63.18
2023-05-19T15:49:28.807Z,63.06
2023-05-19T15:51:56.894Z,63.33
2023-05-19T15:54:28.720Z,63.27
2023-05-19T15:56:56.808Z,63.37
2023-05-19T15:59:23.787Z,63.49
2023-05-19T16:01:54.504Z,63.46
2023-05-19T16:04:21.737Z,63.78
2023-05-19T16:06:49.622Z,63.59
2023-05-19T16:09:17.867Z,63.46
2023-05-19T16:11:46.381Z,63.73
2023-05-19T16:14:17.114Z,63.75
2023-05-19T16:16:46.426Z,63.73
2023-05-19T16:19:13.927Z,63.82
2023-05-19T16:24:54.303Z,64.21
2023-05-19T16:27:42.999Z,64.02
2023-05-19T16:30:35.907Z,63.80
2023-05-19T16:33:17.063Z,63.87
2023-05-19T16:35:44.695Z,63.98
2023-05-19T16:38:12.350Z,63.94
2023-05-19T16:40:39.474Z,63.91
2023-05-19T16:43:07.746Z,63.90
2023-05-19T16:45:41.188Z,64.13
2023-05-19T16:48:09.952Z,64.29
2023-05-19T16:50:38.158Z,64.43
2023-05-19T16:53:07.203Z,64.52
2023-05-19T16:55:35.857Z,64.60
2023-05-19T16:58:04.520Z,64.56
2023-05-19T17:00:34.632Z,64.74
2023-05-19T17:03:03.473Z,64.82
2023-05-19T17:05:32.354Z,65.16
2023-05-19T17:07:59.423Z,65.10
2023-05-19T17:10:26.475Z,65.12
2023-05-19T17:12:54.657Z,65.03
2023-05-19T17:15:43.049Z,65.20
2023-05-19T17:18:27.306Z,65.50
2023-05-19T17:20:54.585Z,65.16
2023-05-19T17:23:22.327Z,65.36
2023-05-19T17:25:56.800Z,65.41
2023-05-19T17:28:28.034Z,65.38
2023-05-19T17:30:58.897Z,65.56
2023-05-19T17:33:26.890Z,65.49
2023-05-19T17:36:03.153Z,65.69
2023-05-19T17:38:32.875Z,66.01
2023-05-19T17:41:05.215Z,66.01
2023-05-19T17:43:32.170Z,66.54
2023-05-19T17:46:01.523Z,67.07
2023-05-19T17:48:32.005Z,67.81
2023-05-19T17:51:05.123Z,68.24
2023-05-19T17:53:34.205Z,68.40
2023-05-19T17:56:03.331Z,68.38
2023-05-19T17:58:30.767Z,68.42
2023-05-19T18:00:58.254Z,68.71
2023-05-19T18:03:25.878Z,68.66
2023-05-19T18:05:53.793Z,68.91
2023-05-19T18:08:25.302Z,69.05
2023-05-19T18:10:52.912Z,69.36
2023-05-19T18:13:23.763Z,69.57
2023-05-19T18:15:52.706Z,69.83
2023-05-19T18:18:20.233Z,69.95
2023-05-19T18:20:48.776Z,70.03
2023-05-19T18:23:20.543Z,70.20
2023-05-19T18:25:52.239Z,70.42
2023-05-19T18:28:21.263Z,70.80
2023-05-19T18:30:48.644Z,71.08
2023-05-19T18:33:18.852Z,71.25
2023-05-19T18:35:48.155Z,71.39
2023-05-19T18:38:17.459Z,71.70
2023-05-19T18:41:01.854Z,72.15
2023-05-19T18:43:30.259Z,72.50
2023-05-19T18:45:58.693Z,72.41
2023-05-19T18:48:27.282Z,72.45
2023-05-19T18:50:54.531Z,72.54
2023-05-19T18:53:22.799Z,72.76
2023-05-19T18:55:49.896Z,73.05
2023-05-19T18:58:19.173Z,73.16
2023-05-19T19:00:47.045Z,73.37
2023-05-19T19:03:17.677Z,73.31
2023-05-19T19:05:54.115Z,73.58
2023-05-19T19:08:22.286Z,73.89
2023-05-19T19:10:51.499Z,73.97
2023-05-19T19:13:19.174Z,74.08
2023-05-19T19:15:46.155Z,73.96
2023-05-19T19:18:13.302Z,73.91
2023-05-19T19:20:41.355Z,73.86
2023-05-19T19:23:08.605Z,73.98
2023-05-19T19:25:35.545Z,73.92
2023-05-19T19:28:03.326Z,73.81
2023-05-19T19:30:30.345Z,73.87
2023-05-19T19:32:57.390Z,73.90
2023-05-19T19:35:26.932Z,74.05
2023-05-19T19:37:53.911Z,73.99
2023-05-19T19:40:21.966Z,74.01
2023-05-19T19:42:48.942Z,73.95
2023-05-19T19:45:16.164Z,73.79
2023-05-19T19:47:43.385Z,73.77
2023-05-19T19:50:11.839Z,73.66
2023-05-19T19:52:38.945Z,73.45
2023-05-19T19:55:06.452Z,73.40
2023-05-19T19:57:34.325Z,73.52
2023-05-19T20:00:07.969Z,73.68
2023-05-19T20:02:51.405Z,73.58
2023-05-19T20:05:30.712Z,73.76
2023-05-19T20:08:01.221Z,73.88
2023-05-19T20:10:28.804Z,73.75
2023-05-19T20:12:59.043Z,73.73
2023-05-19T20:15:27.090Z,73.68
2023-05-19T20:17:54.168Z,73.52
2023-05-19T20:21:44.768Z,73.64
2023-05-19T20:24:13.026Z,73.54
2023-05-19T20:26:40.204Z,73.55
2023-05-19T20:29:08.415Z,73.58
2023-05-19T20:31:36.090Z,73.64
2023-05-19T20:34:07.667Z,73.64
2023-05-19T20:36:34.763Z,73.50
2023-05-19T20:39:02.923Z,73.49
2023-05-19T20:41:29.970Z,73.46
2023-05-19T20:44:03.432Z,73.36
2023-05-19T20:46:32.895Z,73.42
2023-05-19T20:55:19.584Z,73.39
2023-05-19T20:57:49.870Z,73.49
2023-05-19T21:00:19.281Z,73.53
